Time;durP1;ratioP1;P1;durP2;ratioP2;P2;SDS_P1;SDS_P2;PMS_P1;PMS_P2;Temp;Humidity;BMP_temperature;BMP_pressure;BME280_temperature;BME280_humidity;BME280_pressure;Samples;Min_cycle;Max_cycle;Signal;HPM_P1;HPM_P2
2024/01/10 00:02:18;;;;;;;12.23;11.53;;;;;;;-3.38;79.97;93674.63;5056210;28;20217;-76
2024/01/10 00:04:44;;;;;;;13.90;12.57;;;;;;;-3.84;79.35;93637.22;5064163;28;20829;-76
2024/01/10 00:07:09;;;;;;;13.50;12.47;;;;;;;-3.54;81.00;93679.81;5049780;28;20286;-76
2024/01/10 00:09:34;;;;;;;13.10;12.30;;;;;;;-3.63;79.92;93650.19;5041699;28;20197;-76
2024/01/10 00:12:00;;;;;;;12.97;11.97;;;;;;;-3.59;80.51;93682.06;5045780;28;20277;-76
2024/01/10 00:14:25;;;;;;;12.57;11.73;;;;;;;-3.77;78.92;93661.13;5048270;28;20225;-76
2024/01/10 00:16:51;;;;;;;13.93;12.93;;;;;;;-3.74;80.02;93678.63;5039631;28;20225;-76
2024/01/10 00:19:16;;;;;;;14.73;13.60;;;;;;;-3.88;80.88;93669.13;5047020;28;20202;-76
2024/01/10 00:21:41;;;;;;;14.40;13.17;;;;;;;-3.94;81.45;93674.91;5046783;28;20228;-75
2024/01/10 00:24:07;;;;;;;13.13;12.17;;;;;;;-3.79;80.58;93688.53;5055748;28;20245;-76
2024/01/10 00:26:32;;;;;;;13.40;12.23;;;;;;;-3.78;81.54;93678.16;5053284;28;20297;-76
2024/01/10 00:28:57;;;;;;;12.00;11.23;;;;;;;-3.80;80.24;93674.19;5075072;28;20245;-76
2024/01/10 00:31:23;;;;;;;13.40;12.47;;;;;;;-3.69;80.06;93678.94;5064150;28;20192;-76
2024/01/10 00:33:49;;;;;;;12.37;11.50;;;;;;;-3.77;80.77;93681.53;5044605;28;20233;-76
2024/01/10 00:36:14;;;;;;;11.43;10.73;;;;;;;-3.83;81.17;93664.34;5049688;28;20194;-75
2024/01/10 00:38:39;;;;;;;13.53;12.67;;;;;;;-4.24;81.14;93633.09;5050861;28;20222;-76
2024/01/10 00:41:05;;;;;;;13.13;12.30;;;;;;;-3.85;79.60;93650.94;5040327;28;20189;-76
2024/01/10 00:43:30;;;;;;;13.77;12.57;;;;;;;-3.78;79.86;93655.22;5069095;28;20202;-76
2024/01/10 00:45:55;;;;;;;14.67;13.70;;;;;;;-3.68;80.87;93686.41;5071158;28;20192;-76
2024/01/10 00:48:21;;;;;;;14.40;13.50;;;;;;;-3.95;80.92;93688.59;5054151;28;20226;-76
2024/01/10 00:50:46;;;;;;;14.17;13.27;;;;;;;-4.12;81.63;93687.06;5052000;28;20173;-80
2024/01/10 00:53:11;;;;;;;13.93;12.97;;;;;;;-3.85;80.68;93694.31;5059962;28;20287;-75
2024/01/10 00:55:37;;;;;;;14.03;12.17;;;;;;;-3.87;81.75;93689.38;5063849;28;20989;-79
2024/01/10 00:58:02;;;;;;;13.00;12.10;;;;;;;-3.69;80.69;93689.13;5054635;28;20924;-76
2024/01/10 01:00:27;;;;;;;14.03;12.93;;;;;;;-3.64;80.35;93695.31;5046064;28;20210;-78
2024/01/10 01:02:53;;;;;;;14.90;13.60;;;;;;;-3.73;80.63;93695.53;5043036;28;20226;-78
2024/01/10 01:05:18;;;;;;;13.87;12.63;;;;;;;-3.91;80.84;93677.13;5047689;28;20182;-76
2024/01/10 01:07:44;;;;;;;12.47;11.57;;;;;;;-3.78;81.25;93690.91;5050131;28;20275;-77
2024/01/10 01:10:09;;;;;;;14.03;12.97;;;;;;;-4.48;82.42;93661.19;5070749;28;20189;-78
2024/01/10 01:12:34;;;;;;;12.80;12.03;;;;;;;-4.28;81.41;93644.56;5052063;28;20218;-78
2024/01/10 01:15:00;;;;;;;14.27;13.30;;;;;;;-4.04;81.71;93682.75;5041114;28;20251;-78
2024/01/10 01:17:25;;;;;;;13.70;12.47;;;;;;;-4.33;81.70;93600.16;5048396;28;20238;-78
2024/01/10 01:19:50;;;;;;;13.63;12.63;;;;;;;-4.33;83.02;93628.19;5051819;28;20224;-78
2024/01/10 01:22:16;;;;;;;13.00;12.10;;;;;;;-3.78;82.63;93685.81;5061076;28;20240;-77
2024/01/10 01:24:41;;;;;;;13.33;12.40;;;;;;;-3.90;81.95;93650.66;5069423;28;20181;-76
2024/01/10 01:27:06;;;;;;;14.03;12.93;;;;;;;-3.88;81.44;93653.84;5062860;28;20800;-78
2024/01/10 01:29:32;;;;;;;14.97;13.77;;;;;;;-3.73;81.86;93682.75;5039465;28;20175;-78
2024/01/10 01:31:57;;;;;;;14.23;13.10;;;;;;;-3.64;81.68;93669.00;5049807;28;20228;-78
2024/01/10 01:34:22;;;;;;;13.57;12.37;;;;;;;-4.56;81.66;93628.09;5051545;28;20186;-77
2024/01/10 01:36:48;;;;;;;12.90;11.83;;;;;;;-4.05;82.09;93672.72;5047002;28;20267;-78
2024/01/10 01:39:14;;;;;;;13.90;13.07;;;;;;;-3.98;82.73;93660.88;5049242;28;20226;-79
2024/01/10 01:41:39;;;;;;;13.17;12.27;;;;;;;-4.11;83.88;93635.91;5051857;28;20227;-78
2024/01/10 01:44:05;;;;;;;13.53;12.10;;;;;;;-3.94;81.41;93657.06;5069890;28;20185;-78
2024/01/10 01:46:31;;;;;;;14.00;13.03;;;;;;;-4.84;81.73;93529.34;5069427;28;20189;-79
2024/01/10 01:48:57;;;;;;;15.10;12.73;;;;;;;-4.49;83.13;93646.06;5050077;28;20200;-78
2024/01/10 01:51:23;;;;;;;14.03;12.93;;;;;;;-3.90;82.12;93630.25;5046842;28;20178;-78
2024/01/10 01:53:49;;;;;;;14.30;13.17;;;;;;;-3.77;81.15;93626.22;5048051;28;20233;-78
2024/01/10 01:56:16;;;;;;;13.10;12.23;;;;;;;-3.63;79.95;93650.97;5049999;28;20186;-78
2024/01/10 01:58:43;;;;;;;13.47;12.53;;;;;;;-3.75;80.61;93652.31;5068563;28;20248;-78
2024/01/10 02:01:10;;;;;;;13.97;12.83;;;;;;;-3.95;80.76;93661.34;5066886;28;20189;-78
2024/01/10 02:03:35;;;;;;;14.00;13.03;;;;;;;-4.07;81.48;93611.69;5064401;28;20233;-77
2024/01/10 02:06:04;;;;;;;14.47;13.33;;;;;;;-4.08;82.36;93624.59;5060456;28;20186;-78
2024/01/10 02:08:33;;;;;;;13.77;12.63;;;;;;;-3.91;81.45;93651.63;5060750;28;20222;-78
2024/01/10 02:11:00;;;;;;;14.60;13.57;;;;;;;-3.70;80.55;93649.25;5067330;28;20201;-78
2024/01/10 02:13:25;;;;;;;15.90;14.63;;;;;;;-3.88;80.08;93630.88;5042860;28;20287;-78
2024/01/10 02:15:51;;;;;;;14.50;13.33;;;;;;;-3.61;81.28;93643.19;5048860;28;20175;-77
2024/01/10 02:18:17;;;;;;;14.27;13.27;;;;;;;-3.92;81.64;93629.63;5048794;28;20230;-77
2024/01/10 02:20:45;;;;;;;13.60;12.60;;;;;;;-3.90;81.73;93643.00;5040602;28;20252;-78
2024/01/10 02:23:11;;;;;;;14.17;13.07;;;;;;;-3.59;81.49;93648.88;5041532;28;20223;-78
2024/01/10 02:25:37;;;;;;;14.07;13.17;;;;;;;-3.90;81.27;93597.91;5044444;28;20245;-78
2024/01/10 02:28:04;;;;;;;15.37;14.07;;;;;;;-3.86;80.20;93626.41;5050364;28;20256;-78
2024/01/10 02:30:30;;;;;;;14.43;13.33;;;;;;;-3.88;80.89;93641.88;5055124;28;20190;-78
2024/01/10 02:32:55;;;;;;;14.60;12.47;;;;;;;-4.06;81.96;93654.06;5063422;28;20205;-77
2024/01/10 02:35:21;;;;;;;14.00;12.90;;;;;;;-4.19;82.00;93623.22;5055275;28;20262;-78
2024/01/10 02:37:46;;;;;;;15.47;14.33;;;;;;;-3.95;81.84;93647.78;5061106;28;20221;-78
2024/01/10 02:40:12;;;;;;;15.47;14.13;;;;;;;-3.85;80.89;93645.84;5056274;28;20211;-77
2024/01/10 02:42:37;;;;;;;13.70;12.67;;;;;;;-4.03;80.74;93658.81;5047094;28;20222;-78
2024/01/10 02:45:04;;;;;;;14.33;13.17;;;;;;;-4.15;80.73;93654.25;5036710;28;21809;-78
2024/01/10 02:47:29;;;;;;;14.20;13.17;;;;;;;-4.16;82.67;93648.38;5032048;28;20226;-78
2024/01/10 02:49:54;;;;;;;13.30;12.33;;;;;;;-4.21;81.49;93654.91;5049060;28;20189;-78
2024/01/10 02:52:20;;;;;;;14.00;13.10;;;;;;;-4.13;81.99;93642.94;5041489;28;20214;-78
2024/01/10 02:54:46;;;;;;;13.50;12.60;;;;;;;-4.25;81.86;93623.06;5041436;28;20179;-77
2024/01/10 02:57:11;;;;;;;13.53;12.50;;;;;;;-4.64;82.39;93591.66;5042130;28;20222;-77
2024/01/10 02:59:37;;;;;;;13.87;12.87;;;;;;;-4.40;82.28;93630.59;5046257;28;20197;-78
2024/01/10 03:02:02;;;;;;;13.90;12.37;;;;;;;-4.38;83.53;93654.19;5046345;28;20229;-78
2024/01/10 03:04:28;;;;;;;14.37;13.27;;;;;;;-4.23;83.02;93646.63;5058025;28;20277;-78
2024/01/10 03:06:53;;;;;;;14.03;12.67;;;;;;;-4.75;82.78;93595.38;5057034;28;20265;-77
2024/01/10 03:09:18;;;;;;;15.20;14.00;;;;;;;-4.34;83.35;93654.66;5036741;28;20236;-78
2024/01/10 03:11:44;;;;;;;13.60;12.50;;;;;;;-4.27;83.20;93650.47;5048536;28;20229;-77
2024/01/10 03:14:10;;;;;;;13.57;12.47;;;;;;;-4.22;84.04;93660.97;5047751;28;20209;-78
2024/01/10 03:16:37;;;;;;;14.40;13.50;;;;;;;-4.21;83.79;93624.31;5048989;28;20216;-78
2024/01/10 03:19:02;;;;;;;12.83;11.73;;;;;;;-3.96;83.33;93656.41;5049189;28;20194;-78
2024/01/10 03:21:28;;;;;;;14.33;13.27;;;;;;;-4.24;83.88;93633.09;5049366;28;20217;-79
2024/01/10 03:23:56;;;;;;;14.70;13.60;;;;;;;-3.99;83.31;93656.75;5065931;28;20198;-78
2024/01/10 03:26:21;;;;;;;17.37;15.63;;;;;;;-4.10;84.01;93623.97;5043219;28;20277;-78
2024/01/10 03:28:46;;;;;;;18.00;16.37;;;;;;;-3.84;82.82;93619.38;5038643;28;20277;-80
2024/01/10 03:31:12;;;;;;;15.43;14.10;;;;;;;-3.55;82.08;93663.69;5044801;28;20182;-77
2024/01/10 03:33:37;;;;;;;15.13;13.70;;;;;;;-3.90;82.44;93607.28;5046965;28;20214;-79
2024/01/10 03:36:04;;;;;;;13.83;12.63;;;;;;;-3.69;82.53;93644.00;5049211;28;20193;-79
2024/01/10 03:38:30;;;;;;;16.80;15.37;;;;;;;-3.33;81.60;93641.69;5061816;28;20221;-79
2024/01/10 03:40:55;;;;;;;15.30;13.90;;;;;;;-3.63;80.37;93634.91;5062146;28;20194;-79
2024/01/10 03:43:20;;;;;;;17.47;15.90;;;;;;;-3.74;81.62;93648.03;5066427;28;20244;-79
2024/01/10 03:45:46;;;;;;;16.40;14.67;;;;;;;-3.82;81.95;93625.91;5069306;28;20209;-79
2024/01/10 03:48:11;;;;;;;16.63;14.97;;;;;;;-3.57;80.89;93649.53;5065101;28;20225;-79
2024/01/10 03:50:36;;;;;;;14.63;13.17;;;;;;;-4.13;80.80;93596.25;5069349;28;20200;-79
2024/01/10 03:53:02;;;;;;;15.27;13.87;;;;;;;-3.80;81.80;93659.66;5068467;28;20213;-79
2024/01/10 03:55:27;;;;;;;14.97;14.00;;;;;;;-3.94;80.74;93660.38;5055704;28;20189;-78
2024/01/10 03:57:53;;;;;;;14.40;13.40;;;;;;;-3.94;81.50;93641.75;5071121;28;20222;-78
2024/01/10 04:00:18;;;;;;;13.53;12.17;;;;;;;-3.86;80.63;93659.56;5064068;28;20761;-79
2024/01/10 04:02:43;;;;;;;13.10;12.13;;;;;;;-3.86;80.67;93662.13;5074458;28;20354;-79
2024/01/10 04:05:11;;;;;;;13.87;12.97;;;;;;;-3.85;80.98;93663.69;5069584;28;20252;-79
2024/01/10 04:07:39;;;;;;;14.77;13.87;;;;;;;-3.80;82.02;93648.69;5059426;28;20247;-78
2024/01/10 04:10:07;;;;;;;12.87;12.17;;;;;;;-3.76;81.35;93649.94;5064230;28;20215;-79
2024/01/10 04:12:32;;;;;;;14.97;13.97;;;;;;;-3.68;80.60;93671.13;5068292;28;20215;-79
2024/01/10 04:14:57;;;;;;;13.53;12.73;;;;;;;-4.19;80.03;93614.75;5063491;28;20209;-79
2024/01/10 04:17:23;;;;;;;13.37;12.63;;;;;;;-3.88;79.79;93653.84;5058671;28;20290;-79
2024/01/10 04:19:48;;;;;;;11.53;10.83;;;;;;;-3.59;79.21;93656.53;5074972;28;20227;-78
2024/01/10 04:22:13;;;;;;;13.90;13.07;;;;;;;-3.58;78.94;93668.34;5072099;28;20236;-78
2024/01/10 04:24:39;;;;;;;13.50;12.60;;;;;;;-3.60;79.45;93672.81;5058490;28;20206;-77
2024/01/10 04:27:04;;;;;;;12.80;12.00;;;;;;;-3.57;79.68;93678.41;5050388;28;20551;-77
2024/01/10 04:29:30;;;;;;;13.30;12.60;;;;;;;-3.76;80.48;93681.34;5054102;28;20182;-78
2024/01/10 04:31:55;;;;;;;12.73;11.93;;;;;;;-3.87;79.73;93681.72;5053634;28;20839;-78
2024/01/10 04:34:22;;;;;;;13.30;12.50;;;;;;;-4.00;79.89;93665.38;5047667;28;20174;-77
2024/01/10 04:36:48;;;;;;;12.33;11.73;;;;;;;-4.24;78.60;93619.56;5046969;28;20245;-78
2024/01/10 04:39:13;;;;;;;12.37;11.57;;;;;;;-3.63;79.49;93701.22;5031267;28;20210;-77
2024/01/10 04:41:39;;;;;;;13.40;12.40;;;;;;;-3.64;78.74;93699.63;5040916;28;20185;-76
2024/01/10 04:44:05;;;;;;;14.07;13.10;;;;;;;-3.61;77.80;93699.31;5047397;28;20201;-80
2024/01/10 04:46:30;;;;;;;12.80;11.83;;;;;;;-3.98;77.68;93681.28;5046618;28;20206;-75
2024/01/10 04:48:55;;;;;;;12.80;11.60;;;;;;;-3.86;77.39;93710.56;5048253;28;20190;-82
2024/01/10 04:51:21;;;;;;;12.23;11.37;;;;;;;-3.85;78.85;93700.22;5057897;28;20189;-86
2024/01/10 04:53:46;;;;;;;13.00;11.87;;;;;;;-4.10;79.34;93652.00;5040960;28;20222;-85
2024/01/10 04:56:11;;;;;;;13.47;12.50;;;;;;;-3.46;78.12;93712.94;5045627;28;20194;-88
2024/01/10 04:58:37;;;;;;;12.73;11.93;;;;;;;-3.35;76.91;93708.22;5046943;28;20229;-85
2024/01/10 05:01:02;;;;;;;12.23;11.53;;;;;;;-3.48;76.25;93697.00;5051094;28;20206;-80
2024/01/10 05:03:28;;;;;;;12.37;11.73;;;;;;;-3.21;74.67;93711.03;5039915;28;20228;-77
2024/01/10 05:05:53;;;;;;;12.97;12.07;;;;;;;-3.40;73.96;93702.88;5044476;28;20217;-78
2024/01/10 05:08:20;;;;;;;11.97;11.23;;;;;;;-3.40;74.63;93710.53;5072853;28;20382;-76
2024/01/10 05:10:46;;;;;;;13.07;12.27;;;;;;;-3.54;76.52;93706.13;5070869;28;20201;-80
2024/01/10 05:13:12;;;;;;;12.40;11.63;;;;;;;-3.79;77.57;93691.09;5065769;28;21009;-85
2024/01/10 05:15:37;;;;;;;12.67;11.60;;;;;;;-4.09;76.59;93648.47;5069731;28;20181;-77
2024/01/10 05:18:03;;;;;;;13.13;12.23;;;;;;;-3.60;77.11;93722.09;5058503;28;20218;-80
2024/01/10 05:20:28;;;;;;;13.20;12.13;;;;;;;-3.59;77.05;93705.81;5057873;28;20293;-82
2024/01/10 05:22:53;;;;;;;11.63;10.63;;;;;;;-3.83;77.56;93659.22;5061633;28;20221;-76
2024/01/10 05:25:19;;;;;;;12.23;11.63;;;;;;;-3.32;76.22;93725.78;5070468;28;20186;-77
2024/01/10 05:27:44;;;;;;;13.10;12.23;;;;;;;-3.46;77.27;93697.63;5075197;28;20230;-75
2024/01/10 05:30:12;;;;;;;13.33;12.43;;;;;;;-3.40;76.73;93722.47;5058089;28;20181;-80
2024/01/10 05:32:38;;;;;;;13.53;12.53;;;;;;;-3.88;76.35;93717.59;5058081;28;20234;-75
2024/01/10 05:35:04;;;;;;;13.77;12.77;;;;;;;-3.42;77.01;93732.06;5047093;28;20861;-79
2024/01/10 05:37:30;;;;;;;14.07;13.13;;;;;;;-3.55;77.41;93719.06;5045200;28;20206;-75
2024/01/10 05:39:55;;;;;;;12.40;11.60;;;;;;;-3.38;76.58;93729.00;5048073;28;20808;-75
2024/01/10 05:42:20;;;;;;;14.13;12.90;;;;;;;-3.34;75.59;93743.03;5046997;28;20258;-74
2024/01/10 05:44:46;;;;;;;13.63;12.43;;;;;;;-3.58;75.31;93721.94;5049559;28;20194;-73
2024/01/10 05:47:11;;;;;;;13.97;13.03;;;;;;;-3.57;76.08;93734.53;5046488;28;20236;-74
2024/01/10 05:49:36;;;;;;;12.63;11.57;;;;;;;-3.45;74.81;93734.94;5062085;28;20190;-74
2024/01/10 05:52:02;;;;;;;16.13;14.57;;;;;;;-3.70;74.32;93730.91;5062355;28;20225;-74
2024/01/10 05:54:27;;;;;;;14.33;13.30;;;;;;;-3.82;74.55;93711.81;5064522;28;20189;-74
2024/01/10 05:56:52;;;;;;;12.33;11.33;;;;;;;-3.80;73.01;93740.53;5066892;28;20225;-73
2024/01/10 05:59:18;;;;;;;12.97;12.17;;;;;;;-3.62;74.92;93735.97;5066480;28;20213;-74
2024/01/10 06:01:43;;;;;;;14.73;12.03;;;;;;;-3.63;74.36;93727.50;5066784;28;20185;-73
2024/01/10 06:04:08;;;;;;;12.80;11.80;;;;;;;-3.30;73.09;93751.16;5070418;28;20188;-77
2024/01/10 06:06:34;;;;;;;16.43;12.90;;;;;;;-3.47;73.26;93749.66;5066413;28;20198;-73
2024/01/10 06:09:00;;;;;;;14.27;12.93;;;;;;;-3.24;79.21;93742.81;5062197;28;20182;-76
2024/01/10 06:11:25;;;;;;;15.17;13.63;;;;;;;-3.35;75.13;93743.19;5059407;28;20254;-74
2024/01/10 06:13:50;;;;;;;14.60;13.33;;;;;;;-3.33;74.34;93748.91;5043727;28;20201;-75
2024/01/10 06:16:16;;;;;;;13.77;12.57;;;;;;;-3.35;75.11;93750.84;5050038;28;20190;-74
2024/01/10 06:18:42;;;;;;;13.83;12.57;;;;;;;-3.42;74.13;93748.16;5060596;28;20218;-74
2024/01/10 06:21:07;;;;;;;15.53;14.20;;;;;;;-3.41;73.93;93751.53;5069403;28;20221;-75
2024/01/10 06:23:33;;;;;;;14.93;13.73;;;;;;;-3.33;75.29;93754.81;5065910;28;20210;-75
2024/01/10 06:25:58;;;;;;;14.17;13.13;;;;;;;-3.20;75.34;93758.56;5065867;28;20189;-75
2024/01/10 06:28:23;;;;;;;15.10;14.10;;;;;;;-3.25;73.57;93769.28;5062421;28;20252;-74
2024/01/10 06:30:49;;;;;;;14.27;12.97;;;;;;;-2.95;71.88;93763.38;5059678;28;20211;-75
2024/01/10 06:33:15;;;;;;;13.60;12.43;;;;;;;-3.04;71.92;93754.19;5053602;28;20257;-75
2024/01/10 06:35:43;;;;;;;13.70;12.80;;;;;;;-2.80;71.41;93771.91;5049720;28;20178;-74
2024/01/10 06:38:09;;;;;;;12.67;11.67;;;;;;;-3.15;72.95;93772.44;5041639;28;20226;-74
2024/01/10 06:40:34;;;;;;;13.80;12.73;;;;;;;-3.13;72.16;93779.94;5048203;28;20202;-74
2024/01/10 06:43:00;;;;;;;14.27;13.13;;;;;;;-3.24;72.77;93778.56;5063383;28;20237;-74
2024/01/10 06:45:26;;;;;;;14.73;13.37;;;;;;;-3.23;73.80;93784.44;5068831;28;20196;-74
2024/01/10 06:47:51;;;;;;;14.23;13.03;;;;;;;-3.51;72.98;93774.69;5069065;28;20256;-74
2024/01/10 06:50:19;;;;;;;14.37;13.37;;;;;;;-3.27;73.27;93781.44;5068703;28;20190;-74
2024/01/10 06:52:44;;;;;;;14.83;13.40;;;;;;;-3.34;73.02;93778.75;5068456;28;20217;-74
2024/01/10 06:55:10;;;;;;;13.50;12.63;;;;;;;-3.28;72.99;93786.72;5068849;28;20204;-74
2024/01/10 06:57:35;;;;;;;13.17;12.27;;;;;;;-3.27;73.04;93784.00;5067772;28;20241;-74
2024/01/10 07:00:03;;;;;;;13.87;12.77;;;;;;;-3.24;73.46;93783.66;5060867;28;20209;-74
2024/01/10 07:02:28;;;;;;;15.77;14.40;;;;;;;-3.44;73.91;93780.72;5068737;28;20222;-74
2024/01/10 07:04:54;;;;;;;14.53;13.50;;;;;;;-2.85;71.74;93797.19;5067715;28;20267;-74
2024/01/10 07:07:19;;;;;;;13.27;12.10;;;;;;;-2.82;70.96;93801.16;5066413;28;20221;-74
2024/01/10 07:09:44;;;;;;;13.73;12.63;;;;;;;-2.84;71.20;93796.22;5059852;28;20196;-74
2024/01/10 07:12:10;;;;;;;14.97;13.63;;;;;;;-2.98;71.86;93796.94;5065091;28;20221;-74
2024/01/10 07:14:35;;;;;;;13.93;12.83;;;;;;;-3.26;72.14;93800.91;5069414;28;20198;-74
2024/01/10 07:17:00;;;;;;;13.90;12.93;;;;;;;-2.83;73.23;93800.34;5057570;28;20296;-74
2024/01/10 07:19:26;;;;;;;13.83;12.87;;;;;;;-2.57;69.86;93807.69;5046301;28;20206;-74
2024/01/10 07:21:53;;;;;;;13.10;12.20;;;;;;;-2.64;69.56;93805.03;5048973;28;20233;-74
2024/01/10 07:24:19;;;;;;;13.60;12.50;;;;;;;-2.77;69.66;93802.22;5063730;28;20177;-74
2024/01/10 07:26:44;;;;;;;14.03;12.90;;;;;;;-2.82;70.09;93809.63;5045326;28;20241;-74
2024/01/10 07:29:10;;;;;;;13.57;12.43;;;;;;;-2.61;70.08;93814.91;5059525;28;20186;-74
2024/01/10 07:31:35;;;;;;;13.47;12.67;;;;;;;-3.12;71.02;93815.53;5067377;28;20181;-74
2024/01/10 07:34:01;;;;;;;14.10;12.97;;;;;;;-2.97;70.47;93821.50;5038374;28;20293;-75
2024/01/10 07:36:26;;;;;;;14.23;13.13;;;;;;;-3.05;71.41;93806.22;5040795;28;20201;-74
2024/01/10 07:38:52;;;;;;;14.03;12.73;;;;;;;-3.06;70.15;93808.94;5047781;28;20275;-74
2024/01/10 07:41:18;;;;;;;13.87;12.77;;;;;;;-2.99;70.43;93815.78;5043399;28;20174;-74
2024/01/10 07:43:43;;;;;;;15.17;13.87;;;;;;;-3.11;71.54;93821.44;5067157;28;20221;-74
2024/01/10 07:46:09;;;;;;;13.27;12.30;;;;;;;-3.02;70.98;93812.75;5069404;28;20208;-74
2024/01/10 07:48:35;;;;;;;15.50;14.33;;;;;;;-2.96;69.50;93827.41;5064917;28;20235;-74
2024/01/10 07:51:01;;;;;;;14.20;13.20;;;;;;;-2.94;70.18;93826.28;5064278;28;20927;-74
2024/01/10 07:53:26;;;;;;;13.53;12.53;;;;;;;-3.04;70.67;93818.03;5063998;28;20213;-74
2024/01/10 07:55:52;;;;;;;13.90;12.80;;;;;;;-2.84;69.12;93820.94;5058951;28;20192;-74
2024/01/10 07:58:17;;;;;;;14.63;13.33;;;;;;;-3.05;67.10;93816.44;5049170;28;20229;-75
2024/01/10 08:00:43;;;;;;;14.27;13.00;;;;;;;-3.03;67.88;93829.03;5049355;28;20218;-75
2024/01/10 08:03:10;;;;;;;14.63;13.37;;;;;;;-3.77;67.84;93809.06;5061436;28;20225;-75
2024/01/10 08:05:35;;;;;;;14.17;12.93;;;;;;;-3.52;69.18;93826.66;5065483;28;20181;-73
2024/01/10 08:08:00;;;;;;;14.27;13.00;;;;;;;-3.35;67.13;93828.19;5068605;28;20249;-73
2024/01/10 08:10:27;;;;;;;15.20;13.93;;;;;;;-3.66;68.94;93824.78;5067315;28;20215;-73
2024/01/10 08:12:52;;;;;;;14.20;13.03;;;;;;;-3.62;69.33;93838.03;5055577;28;20254;-74
2024/01/10 08:15:19;;;;;;;15.00;13.67;;;;;;;-3.74;72.26;93836.78;5046135;28;20186;-73
2024/01/10 08:17:45;;;;;;;14.77;13.37;;;;;;;-3.74;70.69;93826.59;5061091;28;20209;-74
2024/01/10 08:20:10;;;;;;;13.57;12.47;;;;;;;-3.32;70.31;93837.31;5068618;28;20209;-74
2024/01/10 08:22:36;;;;;;;13.30;12.30;;;;;;;-3.23;67.89;93836.31;5060276;28;20213;-74
2024/01/10 08:25:02;;;;;;;14.27;12.87;;;;;;;-3.45;66.76;93826.81;5067178;28;20197;-74
2024/01/10 08:27:28;;;;;;;14.93;13.77;;;;;;;-3.30;66.77;93831.06;5064905;28;20221;-74
2024/01/10 08:29:53;;;;;;;14.73;13.50;;;;;;;-2.95;66.64;93829.78;5063209;28;20273;-74
2024/01/10 08:32:21;;;;;;;14.23;12.87;;;;;;;-3.33;66.08;93823.75;5066535;28;20232;-75
2024/01/10 08:34:47;;;;;;;13.30;12.20;;;;;;;-2.97;66.76;93841.94;5066508;28;20186;-74
2024/01/10 08:37:13;;;;;;;14.80;13.40;;;;;;;-3.13;68.28;93819.03;5067577;28;20225;-74
2024/01/10 08:39:38;;;;;;;14.17;12.97;;;;;;;-2.97;69.36;93841.94;5072609;28;20260;-74
2024/01/10 08:42:03;;;;;;;15.83;14.60;;;;;;;-3.43;69.74;93840.22;5072158;28;20225;-74
2024/01/10 08:44:29;;;;;;;14.27;13.17;;;;;;;-3.25;71.37;93843.34;5060478;28;20201;-74
2024/01/10 08:46:54;;;;;;;15.13;13.77;;;;;;;-3.26;70.70;93834.09;5056829;28;20226;-74
2024/01/10 08:49:20;;;;;;;15.57;14.37;;;;;;;-3.21;70.05;93836.16;5062238;28;20752;-74
2024/01/10 08:51:46;;;;;;;17.53;15.80;;;;;;;-2.83;70.12;93838.66;5066698;28;20224;-74
2024/01/10 08:54:16;;;;;;;16.07;14.50;;;;;;;-3.34;70.02;93841.78;5049339;28;20273;-74
2024/01/10 08:56:48;;;;;;;16.70;14.97;;;;;;;-3.33;70.04;93839.06;5042401;28;20182;-73
2024/01/10 08:59:14;;;;;;;24.90;18.17;;;;;;;-3.39;72.38;93846.56;5048348;28;20210;-74
2024/01/10 09:01:40;;;;;;;15.63;14.33;;;;;;;-2.91;70.97;93827.72;5053669;28;20178;-73
2024/01/10 09:04:06;;;;;;;14.50;13.17;;;;;;;-2.62;69.88;93849.09;5071909;28;20186;-74
2024/01/10 09:06:32;;;;;;;13.87;12.93;;;;;;;-2.55;69.29;93847.44;5070177;28;20197;-74
2024/01/10 09:08:57;;;;;;;13.93;13.03;;;;;;;-2.74;70.97;93847.88;5069518;28;20177;-74
2024/01/10 09:11:24;;;;;;;14.53;13.30;;;;;;;-2.86;70.40;93839.00;5065479;28;20193;-74
2024/01/10 09:13:50;;;;;;;15.63;14.23;;;;;;;-2.78;70.78;93825.38;5061860;28;20209;-73
2024/01/10 09:16:15;;;;;;;13.40;12.30;;;;;;;-2.98;71.14;93830.13;5071764;28;20211;-74
2024/01/10 09:18:41;;;;;;;14.90;13.73;;;;;;;-2.39;71.22;93846.53;5056643;28;20229;-73
2024/01/10 09:21:06;;;;;;;15.17;14.07;;;;;;;-2.12;70.01;93835.81;5067685;28;20232;-74
2024/01/10 09:23:32;;;;;;;19.00;13.33;;;;;;;-2.11;69.62;93843.31;5058005;28;20252;-74
2024/01/10 09:25:57;;;;;;;14.87;13.73;;;;;;;-1.98;67.85;93843.50;5050748;28;20170;-74
2024/01/10 09:28:23;;;;;;;16.30;14.77;;;;;;;-2.09;68.16;93830.34;5050179;28;20229;-73
2024/01/10 09:30:48;;;;;;;16.33;14.93;;;;;;;-2.06;68.40;93832.56;5042406;28;20190;-74
2024/01/10 09:33:14;;;;;;;15.37;14.27;;;;;;;-2.56;72.06;93834.84;5046455;28;20744;-74
2024/01/10 09:35:39;;;;;;;15.33;14.03;;;;;;;-2.37;70.62;93834.41;5049835;28;20210;-75
2024/01/10 09:38:05;;;;;;;15.03;13.87;;;;;;;-1.94;69.12;93836.28;5049535;28;20218;-75
2024/01/10 09:40:30;;;;;;;14.73;13.20;;;;;;;-1.78;67.42;93839.50;5051155;28;20222;-74
2024/01/10 09:42:56;;;;;;;15.03;13.73;;;;;;;-1.77;67.45;93840.28;5040124;28;20278;-74
2024/01/10 09:45:23;;;;;;;14.90;13.57;;;;;;;-2.52;71.11;93829.22;5047565;28;20170;-74
2024/01/10 09:47:53;;;;;;;15.57;14.00;;;;;;;-1.99;69.87;93834.25;5051209;28;20225;-75
2024/01/10 09:50:19;;;;;;;15.27;13.97;;;;;;;-2.04;69.73;93840.84;5048722;28;20235;-74
2024/01/10 09:52:53;;;;;;;14.50;13.40;;;;;;;-2.40;71.92;93830.44;5051151;28;20225;-75
2024/01/10 09:55:23;;;;;;;15.70;14.50;;;;;;;-2.28;70.72;93816.28;5051257;28;20253;-74
2024/01/10 09:57:49;;;;;;;15.37;14.20;;;;;;;-2.17;70.42;93827.84;5063775;28;20229;-75
2024/01/10 10:00:16;;;;;;;17.40;16.00;;;;;;;-1.96;70.71;93825.44;5065093;28;20236;-74
2024/01/10 10:02:42;;;;;;;15.77;14.33;;;;;;;-2.12;71.28;93820.47;5072002;28;20248;-76
2024/01/10 10:05:08;;;;;;;16.23;14.47;;;;;;;-1.94;70.21;93826.84;5067642;28;20185;-75
2024/01/10 10:07:50;;;;;;;16.07;14.70;;;;;;;-1.96;70.19;93808.31;5055542;28;20221;-75
2024/01/10 10:10:18;;;;;;;17.93;14.87;;;;;;;-1.99;72.18;93805.28;5043868;28;20217;-75
2024/01/10 10:12:49;;;;;;;15.93;14.33;;;;;;;-2.13;72.43;93811.97;5044003;28;20218;-75
2024/01/10 10:15:21;;;;;;;14.33;12.87;;;;;;;-1.32;71.52;93809.41;5050812;28;20186;-75
2024/01/10 10:17:48;;;;;;;17.40;13.23;;;;;;;-1.49;70.49;93799.53;5049894;28;20222;-74
2024/01/10 10:20:21;;;;;;;15.60;14.23;;;;;;;-1.52;71.30;93805.00;5049578;28;20264;-76
2024/01/10 10:23:04;;;;;;;17.97;15.43;;;;;;;-1.06;68.19;93780.78;5042110;28;20225;-77
2024/01/10 10:25:34;;;;;;;16.57;14.83;;;;;;;-1.20;68.01;93789.28;5050929;28;20178;-76
2024/01/10 10:28:01;;;;;;;17.63;14.53;;;;;;;-1.44;68.62;93734.00;5049759;28;20282;-76
2024/01/10 10:30:28;;;;;;;15.47;13.87;;;;;;;-0.90;67.25;93790.81;5050079;28;20178;-76
2024/01/10 10:32:54;;;;;;;16.73;14.10;;;;;;;-0.82;66.93;93777.88;5050501;28;20226;-76
2024/01/10 10:35:20;;;;;;;15.43;14.03;;;;;;;-1.06;70.01;93765.41;5047999;28;20202;-76
2024/01/10 10:37:48;;;;;;;15.93;14.50;;;;;;;-0.60;67.55;93780.28;5060629;28;20224;-75
2024/01/10 10:40:13;;;;;;;15.50;13.33;;;;;;;-0.96;70.21;93769.25;5065541;28;20244;-76
2024/01/10 10:42:43;;;;;;;16.40;14.87;;;;;;;-1.00;67.58;93768.03;5050626;28;20218;-76
2024/01/10 10:45:14;;;;;;;16.63;14.77;;;;;;;-1.01;68.38;93752.84;5048303;28;20192;-76
2024/01/10 10:47:43;;;;;;;18.30;13.03;;;;;;;-0.93;68.43;93768.09;5048864;28;20233;-77
2024/01/10 10:50:14;;;;;;;16.50;15.00;;;;;;;-0.67;67.66;93743.50;5046428;28;20182;-76
2024/01/10 10:52:46;;;;;;;17.37;14.90;;;;;;;-0.62;67.49;93735.28;5048077;28;20232;-76
2024/01/10 10:55:14;;;;;;;19.03;14.73;;;;;;;-0.51;66.22;93752.72;5048363;28;20216;-76
2024/01/10 10:57:42;;;;;;;17.37;14.83;;;;;;;-0.53;67.53;93752.16;5057092;28;20218;-76
2024/01/10 11:00:10;;;;;;;16.67;14.23;;;;;;;-0.82;68.81;93758.16;5058020;28;20215;-76
2024/01/10 11:02:37;;;;;;;18.67;15.53;;;;;;;-0.64;68.92;93732.88;5056641;28;20215;-77
2024/01/10 11:05:05;;;;;;;18.20;15.43;;;;;;;-0.59;68.84;93699.03;5048882;28;20178;-76
2024/01/10 11:07:31;;;;;;;17.17;15.57;;;;;;;-0.97;68.42;93707.94;5045836;28;20252;-77
2024/01/10 11:09:59;;;;;;;17.30;15.50;;;;;;;-0.65;67.17;93705.69;5040781;28;20246;-76
2024/01/10 11:12:55;;;;;;;15.33;13.73;;;;;;;-0.26;65.68;93738.53;5048284;28;20220;-76